sensor_id;sensor_type;location;lat;lon;timestamp;temperature;humidity
21169;DHT22;10742;51.816;8.662;2022-11-20T00:02:52;0.60;89.40
21169;DHT22;10742;51.816;8.662;2022-11-20T00:06:17;0.60;89.70
21169;DHT22;10742;51.816;8.662;2022-11-20T00:09:39;0.50;89.90
21169;DHT22;10742;51.816;8.662;2022-11-20T00:13:00;0.50;90.00
21169;DHT22;10742;51.816;8.662;2022-11-20T00:16:23;0.50;90.00
21169;DHT22;10742;51.816;8.662;2022-11-20T00:19:45;0.50;90.00
21169;DHT22;10742;51.816;8.662;2022-11-20T00:23:06;0.50;90.10
21169;DHT22;10742;51.816;8.662;2022-11-20T00:26:28;0.50;90.10
21169;DHT22;10742;51.816;8.662;2022-11-20T00:29:49;0.50;90.00
21169;DHT22;10742;51.816;8.662;2022-11-20T00:33:10;0.50;90.00
21169;DHT22;10742;51.816;8.662;2022-11-20T00:36:33;0.60;90.00
21169;DHT22;10742;51.816;8.662;2022-11-20T00:39:54;0.50;90.00
21169;DHT22;10742;51.816;8.662;2022-11-20T00:43:15;0.60;89.90
21169;DHT22;10742;51.816;8.662;2022-11-20T00:46:36;0.60;89.80
21169;DHT22;10742;51.816;8.662;2022-11-20T00:49:58;0.50;89.40
21169;DHT22;10742;51.816;8.662;2022-11-20T00:53:19;0.50;89.30
21169;DHT22;10742;51.816;8.662;2022-11-20T00:56:40;0.40;89.30
21169;DHT22;10742;51.816;8.662;2022-11-20T01:00:02;0.30;89.60
21169;DHT22;10742;51.816;8.662;2022-11-20T01:03:23;0.20;89.60
21169;DHT22;10742;51.816;8.662;2022-11-20T01:06:47;0.20;89.90
21169;DHT22;10742;51.816;8.662;2022-11-20T01:10:08;0.20;89.90
21169;DHT22;10742;51.816;8.662;2022-11-20T01:13:30;0.20;90.00
21169;DHT22;10742;51.816;8.662;2022-11-20T01:17:00;0.20;90.00
21169;DHT22;10742;51.816;8.662;2022-11-20T01:20:22;0.20;90.00
21169;DHT22;10742;51.816;8.662;2022-11-20T01:23:43;0.20;90.00
21169;DHT22;10742;51.816;8.662;2022-11-20T01:27:05;0.20;89.90
21169;DHT22;10742;51.816;8.662;2022-11-20T01:30:26;0.20;89.90
21169;DHT22;10742;51.816;8.662;2022-11-20T01:33:48;0.20;89.80
21169;DHT22;10742;51.816;8.662;2022-11-20T01:37:09;0.20;89.60
21169;DHT22;10742;51.816;8.662;2022-11-20T01:40:31;0.20;89.60
21169;DHT22;10742;51.816;8.662;2022-11-20T01:43:52;0.20;89.60
21169;DHT22;10742;51.816;8.662;2022-11-20T01:47:17;0.10;89.60
21169;DHT22;10742;51.816;8.662;2022-11-20T01:50:42;0.10;89.70
21169;DHT22;10742;51.816;8.662;2022-11-20T01:54:06;0.10;89.70
21169;DHT22;10742;51.816;8.662;2022-11-20T01:57:29;0.10;89.70
21169;DHT22;10742;51.816;8.662;2022-11-20T02:00:52;0.10;89.80
21169;DHT22;10742;51.816;8.662;2022-11-20T02:04:13;0.10;89.70
21169;DHT22;10742;51.816;8.662;2022-11-20T02:07:35;0.10;89.70
21169;DHT22;10742;51.816;8.662;2022-11-20T02:10:57;0.10;89.60
21169;DHT22;10742;51.816;8.662;2022-11-20T02:14:19;0.10;89.60
21169;DHT22;10742;51.816;8.662;2022-11-20T02:17:40;0.10;89.60
21169;DHT22;10742;51.816;8.662;2022-11-20T02:21:39;0.10;89.60
21169;DHT22;10742;51.816;8.662;2022-11-20T02:25:02;0.10;89.50
21169;DHT22;10742;51.816;8.662;2022-11-20T02:28:24;0.10;89.50
21169;DHT22;10742;51.816;8.662;2022-11-20T02:31:45;0.10;89.50
21169;DHT22;10742;51.816;8.662;2022-11-20T02:38:48;0.10;89.40
21169;DHT22;10742;51.816;8.662;2022-11-20T02:42:10;0.10;89.50
21169;DHT22;10742;51.816;8.662;2022-11-20T02:45:31;0.10;89.50
21169;DHT22;10742;51.816;8.662;2022-11-20T02:48:52;0.10;89.60
21169;DHT22;10742;51.816;8.662;2022-11-20T02:52:14;0.00;89.50
21169;DHT22;10742;51.816;8.662;2022-11-20T02:55:35;0.00;89.40
21169;DHT22;10742;51.816;8.662;2022-11-20T02:58:57;0.00;89.30
21169;DHT22;10742;51.816;8.662;2022-11-20T03:02:17;0.00;89.30
21169;DHT22;10742;51.816;8.662;2022-11-20T03:05:38;-0.10;89.30
21169;DHT22;10742;51.816;8.662;2022-11-20T03:08:59;-0.10;89.50
21169;DHT22;10742;51.816;8.662;2022-11-20T03:12:20;-0.10;89.50
21169;DHT22;10742;51.816;8.662;2022-11-20T03:15:42;-0.20;89.50
21169;DHT22;10742;51.816;8.662;2022-11-20T03:19:03;-0.20;89.50
21169;DHT22;10742;51.816;8.662;2022-11-20T03:22:24;-0.20;89.50
21169;DHT22;10742;51.816;8.662;2022-11-20T03:25:45;-0.20;89.50
21169;DHT22;10742;51.816;8.662;2022-11-20T03:29:07;-0.20;89.60
21169;DHT22;10742;51.816;8.662;2022-11-20T03:32:28;-0.30;89.60
21169;DHT22;10742;51.816;8.662;2022-11-20T03:35:49;-0.20;89.70
21169;DHT22;10742;51.816;8.662;2022-11-20T03:39:10;-0.20;89.80
21169;DHT22;10742;51.816;8.662;2022-11-20T03:42:31;-0.30;89.60
21169;DHT22;10742;51.816;8.662;2022-11-20T03:46:08;-0.20;89.80
21169;DHT22;10742;51.816;8.662;2022-11-20T03:49:29;-0.30;89.80
21169;DHT22;10742;51.816;8.662;2022-11-20T03:52:50;-0.30;89.80
21169;DHT22;10742;51.816;8.662;2022-11-20T03:56:13;-0.30;89.60
21169;DHT22;10742;51.816;8.662;2022-11-20T03:59:34;-0.30;89.30
21169;DHT22;10742;51.816;8.662;2022-11-20T04:02:58;-0.40;89.30
21169;DHT22;10742;51.816;8.662;2022-11-20T04:06:28;-0.50;89.30
21169;DHT22;10742;51.816;8.662;2022-11-20T04:09:49;-0.50;89.60
21169;DHT22;10742;51.816;8.662;2022-11-20T04:13:11;-0.50;89.70
21169;DHT22;10742;51.816;8.662;2022-11-20T04:16:34;-0.50;90.00
21169;DHT22;10742;51.816;8.662;2022-11-20T04:19:55;-0.60;89.90
21169;DHT22;10742;51.816;8.662;2022-11-20T04:23:16;-0.60;90.00
21169;DHT22;10742;51.816;8.662;2022-11-20T04:26:38;-0.60;90.00
21169;DHT22;10742;51.816;8.662;2022-11-20T04:29:59;-0.60;90.00
21169;DHT22;10742;51.816;8.662;2022-11-20T04:33:20;-0.60;89.90
21169;DHT22;10742;51.816;8.662;2022-11-20T04:36:42;-0.60;89.80
21169;DHT22;10742;51.816;8.662;2022-11-20T04:40:03;-0.60;89.80
21169;DHT22;10742;51.816;8.662;2022-11-20T04:43:25;-0.70;89.80
21169;DHT22;10742;51.816;8.662;2022-11-20T04:46:46;-0.70;89.90
21169;DHT22;10742;51.816;8.662;2022-11-20T04:50:09;-0.70;90.00
21169;DHT22;10742;51.816;8.662;2022-11-20T04:53:30;-0.70;90.00
21169;DHT22;10742;51.816;8.662;2022-11-20T04:56:51;-0.70;90.00
21169;DHT22;10742;51.816;8.662;2022-11-20T05:00:12;-0.70;90.00
21169;DHT22;10742;51.816;8.662;2022-11-20T05:03:34;-0.70;90.00
21169;DHT22;10742;51.816;8.662;2022-11-20T05:07:01;-0.70;89.90
21169;DHT22;10742;51.816;8.662;2022-11-20T05:10:27;-0.70;89.80
21169;DHT22;10742;51.816;8.662;2022-11-20T05:13:50;-0.70;89.70
21169;DHT22;10742;51.816;8.662;2022-11-20T05:17:12;-0.80;89.60
21169;DHT22;10742;51.816;8.662;2022-11-20T05:20:33;-0.80;89.60
21169;DHT22;10742;51.816;8.662;2022-11-20T05:23:54;-0.80;89.60
21169;DHT22;10742;51.816;8.662;2022-11-20T05:27:16;-0.90;89.60
21169;DHT22;10742;51.816;8.662;2022-11-20T05:30:36;-0.90;89.60
21169;DHT22;10742;51.816;8.662;2022-11-20T05:33:57;-0.90;89.70
21169;DHT22;10742;51.816;8.662;2022-11-20T05:37:19;-0.90;89.70
21169;DHT22;10742;51.816;8.662;2022-11-20T05:40:40;-0.90;89.80
21169;DHT22;10742;51.816;8.662;2022-11-20T05:44:01;-0.90;89.80
21169;DHT22;10742;51.816;8.662;2022-11-20T05:47:22;-1.00;89.70
21169;DHT22;10742;51.816;8.662;2022-11-20T05:50:43;-0.90;89.80
21169;DHT22;10742;51.816;8.662;2022-11-20T05:54:04;-1.00;89.70
21169;DHT22;10742;51.816;8.662;2022-11-20T05:57:25;-1.00;89.80
21169;DHT22;10742;51.816;8.662;2022-11-20T06:00:47;-1.00;89.80
21169;DHT22;10742;51.816;8.662;2022-11-20T06:04:08;-1.00;90.00
21169;DHT22;10742;51.816;8.662;2022-11-20T06:07:29;-0.90;90.00
21169;DHT22;10742;51.816;8.662;2022-11-20T06:10:50;-0.90;90.20
21169;DHT22;10742;51.816;8.662;2022-11-20T06:14:11;-0.90;90.10
21169;DHT22;10742;51.816;8.662;2022-11-20T06:17:33;-0.90;90.20
21169;DHT22;10742;51.816;8.662;2022-11-20T06:21:14;-0.80;90.30
21169;DHT22;10742;51.816;8.662;2022-11-20T06:24:36;-0.80;90.40
21169;DHT22;10742;51.816;8.662;2022-11-20T06:27:57;-0.70;90.40
21169;DHT22;10742;51.816;8.662;2022-11-20T06:31:21;-0.70;90.40
21169;DHT22;10742;51.816;8.662;2022-11-20T06:34:42;-0.60;90.40
21169;DHT22;10742;51.816;8.662;2022-11-20T06:38:04;-0.60;90.40
21169;DHT22;10742;51.816;8.662;2022-11-20T06:41:25;-0.50;90.50
21169;DHT22;10742;51.816;8.662;2022-11-20T06:44:47;-0.40;90.50
21169;DHT22;10742;51.816;8.662;2022-11-20T06:48:08;-0.40;90.50
21169;DHT22;10742;51.816;8.662;2022-11-20T06:51:29;-0.30;90.50
21169;DHT22;10742;51.816;8.662;2022-11-20T06:54:50;-0.30;90.50
21169;DHT22;10742;51.816;8.662;2022-11-20T06:58:12;-0.20;90.50
21169;DHT22;10742;51.816;8.662;2022-11-20T07:01:33;-0.20;90.50
21169;DHT22;10742;51.816;8.662;2022-11-20T07:04:54;-0.10;90.60
21169;DHT22;10742;51.816;8.662;2022-11-20T07:08:16;-0.10;90.60
21169;DHT22;10742;51.816;8.662;2022-11-20T07:11:37;0.00;90.50
21169;DHT22;10742;51.816;8.662;2022-11-20T07:14:57;0.00;90.50
21169;DHT22;10742;51.816;8.662;2022-11-20T07:18:19;0.10;90.50
21169;DHT22;10742;51.816;8.662;2022-11-20T07:21:40;0.10;90.50
21169;DHT22;10742;51.816;8.662;2022-11-20T07:25:01;0.10;90.60
21169;DHT22;10742;51.816;8.662;2022-11-20T07:28:22;0.20;90.60
21169;DHT22;10742;51.816;8.662;2022-11-20T07:31:44;0.20;90.70
21169;DHT22;10742;51.816;8.662;2022-11-20T07:35:05;0.30;90.70
21169;DHT22;10742;51.816;8.662;2022-11-20T07:38:27;0.30;90.70
21169;DHT22;10742;51.816;8.662;2022-11-20T07:41:48;0.40;90.80
21169;DHT22;10742;51.816;8.662;2022-11-20T07:45:10;0.40;90.80
21169;DHT22;10742;51.816;8.662;2022-11-20T07:48:31;0.50;90.90
21169;DHT22;10742;51.816;8.662;2022-11-20T07:51:53;0.60;90.90
21169;DHT22;10742;51.816;8.662;2022-11-20T07:55:14;0.70;91.00
21169;DHT22;10742;51.816;8.662;2022-11-20T07:58:35;0.70;91.00
21169;DHT22;10742;51.816;8.662;2022-11-20T08:01:57;0.80;91.00
21169;DHT22;10742;51.816;8.662;2022-11-20T08:05:18;0.90;91.00
21169;DHT22;10742;51.816;8.662;2022-11-20T08:08:39;1.00;91.00
21169;DHT22;10742;51.816;8.662;2022-11-20T08:12:02;1.10;91.10
21169;DHT22;10742;51.816;8.662;2022-11-20T08:15:48;1.10;91.10
21169;DHT22;10742;51.816;8.662;2022-11-20T08:19:11;1.20;91.40
21169;DHT22;10742;51.816;8.662;2022-11-20T08:22:32;1.40;91.40
21169;DHT22;10742;51.816;8.662;2022-11-20T08:25:53;1.50;91.40
21169;DHT22;10742;51.816;8.662;2022-11-20T08:29:14;1.60;91.50
21169;DHT22;10742;51.816;8.662;2022-11-20T08:32:35;1.70;91.50
21169;DHT22;10742;51.816;8.662;2022-11-20T08:35:59;1.80;91.40
21169;DHT22;10742;51.816;8.662;2022-11-20T08:39:21;1.90;91.30
21169;DHT22;10742;51.816;8.662;2022-11-20T08:42:50;1.90;91.30
21169;DHT22;10742;51.816;8.662;2022-11-20T08:46:12;2.00;91.30
21169;DHT22;10742;51.816;8.662;2022-11-20T08:49:33;2.10;91.30
21169;DHT22;10742;51.816;8.662;2022-11-20T08:52:55;2.10;91.30
21169;DHT22;10742;51.816;8.662;2022-11-20T08:56:16;2.20;91.40
21169;DHT22;10742;51.816;8.662;2022-11-20T08:59:38;2.20;91.50
21169;DHT22;10742;51.816;8.662;2022-11-20T09:03:20;2.30;91.60
21169;DHT22;10742;51.816;8.662;2022-11-20T09:06:41;2.40;91.70
21169;DHT22;10742;51.816;8.662;2022-11-20T09:10:03;2.50;91.80
21169;DHT22;10742;51.816;8.662;2022-11-20T09:13:42;2.60;91.90
21169;DHT22;10742;51.816;8.662;2022-11-20T09:17:03;2.70;92.10
21169;DHT22;10742;51.816;8.662;2022-11-20T09:20:25;2.80;92.10
21169;DHT22;10742;51.816;8.662;2022-11-20T09:23:45;2.90;92.20
21169;DHT22;10742;51.816;8.662;2022-11-20T09:27:07;3.10;92.30
21169;DHT22;10742;51.816;8.662;2022-11-20T09:30:29;3.20;92.40
21169;DHT22;10742;51.816;8.662;2022-11-20T09:33:50;3.40;92.50
21169;DHT22;10742;51.816;8.662;2022-11-20T09:37:12;3.50;92.50
21169;DHT22;10742;51.816;8.662;2022-11-20T09:40:35;3.70;92.60
21169;DHT22;10742;51.816;8.662;2022-11-20T09:44:07;3.80;92.50
21169;DHT22;10742;51.816;8.662;2022-11-20T09:51:25;4.10;92.40
21169;DHT22;10742;51.816;8.662;2022-11-20T09:54:50;4.30;92.30
21169;DHT22;10742;51.816;8.662;2022-11-20T09:58:25;4.40;92.20
21169;DHT22;10742;51.816;8.662;2022-11-20T10:01:50;4.50;92.20
21169;DHT22;10742;51.816;8.662;2022-11-20T10:05:19;4.70;92.20
21169;DHT22;10742;51.816;8.662;2022-11-20T10:08:47;4.90;92.20
21169;DHT22;10742;51.816;8.662;2022-11-20T10:20:29;5.20;91.80
21169;DHT22;10742;51.816;8.662;2022-11-20T10:24:43;5.40;91.50
21169;DHT22;10742;51.816;8.662;2022-11-20T10:28:10;5.50;91.40
21169;DHT22;10742;51.816;8.662;2022-11-20T10:31:39;5.60;91.40
21169;DHT22;10742;51.816;8.662;2022-11-20T10:35:07;5.70;91.50
21169;DHT22;10742;51.816;8.662;2022-11-20T10:41:59;5.90;91.50
21169;DHT22;10742;51.816;8.662;2022-11-20T10:48:46;6.10;91.40
21169;DHT22;10742;51.816;8.662;2022-11-20T10:52:20;6.20;91.30
21169;DHT22;10742;51.816;8.662;2022-11-20T10:55:55;6.30;91.30
21169;DHT22;10742;51.816;8.662;2022-11-20T11:00:21;6.40;91.10
21169;DHT22;10742;51.816;8.662;2022-11-20T11:03:31;6.50;91.10
21169;DHT22;10742;51.816;8.662;2022-11-20T11:06:57;6.70;91.10
21169;DHT22;10742;51.816;8.662;2022-11-20T11:14:08;6.90;90.90
21169;DHT22;10742;51.816;8.662;2022-11-20T11:17:34;7.00;91.10
21169;DHT22;10742;51.816;8.662;2022-11-20T11:20:56;7.10;90.90
21169;DHT22;10742;51.816;8.662;2022-11-20T11:28:03;7.30;90.90
21169;DHT22;10742;51.816;8.662;2022-11-20T11:31:27;7.40;90.90
21169;DHT22;10742;51.816;8.662;2022-11-20T11:35:06;7.50;90.90
21169;DHT22;10742;51.816;8.662;2022-11-20T11:38:39;7.70;90.80
21169;DHT22;10742;51.816;8.662;2022-11-20T11:42:01;7.80;90.90
21169;DHT22;10742;51.816;8.662;2022-11-20T11:45:23;7.90;90.80
21169;DHT22;10742;51.816;8.662;2022-11-20T11:48:55;8.00;90.70
21169;DHT22;10742;51.816;8.662;2022-11-20T11:52:20;8.10;90.30
21169;DHT22;10742;51.816;8.662;2022-11-20T11:59:15;8.30;90.30
21169;DHT22;10742;51.816;8.662;2022-11-20T12:06:11;8.40;90.10
21169;DHT22;10742;51.816;8.662;2022-11-20T12:09:38;8.50;90.00
21169;DHT22;10742;51.816;8.662;2022-11-20T12:16:39;8.50;89.20
21169;DHT22;10742;51.816;8.662;2022-11-20T12:20:00;8.50;90.00
21169;DHT22;10742;51.816;8.662;2022-11-20T12:23:33;8.60;90.10
21169;DHT22;10742;51.816;8.662;2022-11-20T12:31:31;8.70;89.20
21169;DHT22;10742;51.816;8.662;2022-11-20T12:35:01;8.80;89.40
21169;DHT22;10742;51.816;8.662;2022-11-20T12:38:49;8.80;89.50
21169;DHT22;10742;51.816;8.662;2022-11-20T12:46:13;8.80;89.20
21169;DHT22;10742;51.816;8.662;2022-11-20T12:49:47;8.80;88.90
21169;DHT22;10742;51.816;8.662;2022-11-20T12:56:56;8.80;89.20
21169;DHT22;10742;51.816;8.662;2022-11-20T13:00:23;8.80;89.30
21169;DHT22;10742;51.816;8.662;2022-11-20T13:03:51;8.80;89.20
21169;DHT22;10742;51.816;8.662;2022-11-20T13:07:16;8.80;88.70
21169;DHT22;10742;51.816;8.662;2022-11-20T13:10:59;8.80;88.70
21169;DHT22;10742;51.816;8.662;2022-11-20T13:14:35;8.80;88.30
21169;DHT22;10742;51.816;8.662;2022-11-20T13:18:00;8.70;88.30
21169;DHT22;10742;51.816;8.662;2022-11-20T13:21:38;8.70;88.60
21169;DHT22;10742;51.816;8.662;2022-11-20T13:25:00;8.60;88.10
21169;DHT22;10742;51.816;8.662;2022-11-20T13:31:47;8.60;88.70
21169;DHT22;10742;51.816;8.662;2022-11-20T13:35:09;8.50;88.40
21169;DHT22;10742;51.816;8.662;2022-11-20T13:38:50;8.50;88.70
21169;DHT22;10742;51.816;8.662;2022-11-20T13:45:33;8.50;89.00
21169;DHT22;10742;51.816;8.662;2022-11-20T13:49:07;8.50;88.90
21169;DHT22;10742;51.816;8.662;2022-11-20T13:52:55;8.50;88.30
21169;DHT22;10742;51.816;8.662;2022-11-20T13:56:34;8.50;88.10
21169;DHT22;10742;51.816;8.662;2022-11-20T14:03:34;8.40;88.00
21169;DHT22;10742;51.816;8.662;2022-11-20T14:07:17;8.40;88.10
21169;DHT22;10742;51.816;8.662;2022-11-20T14:10:39;8.30;87.90
21169;DHT22;10742;51.816;8.662;2022-11-20T14:14:01;8.30;87.90
21169;DHT22;10742;51.816;8.662;2022-11-20T14:17:35;8.20;87.80
21169;DHT22;10742;51.816;8.662;2022-11-20T14:21:00;8.20;87.40
21169;DHT22;10742;51.816;8.662;2022-11-20T14:24:24;8.10;87.80
21169;DHT22;10742;51.816;8.662;2022-11-20T14:28:00;8.10;88.00
21169;DHT22;10742;51.816;8.662;2022-11-20T14:31:23;8.00;87.70
21169;DHT22;10742;51.816;8.662;2022-11-20T14:34:48;8.00;88.00
21169;DHT22;10742;51.816;8.662;2022-11-20T14:38:13;8.00;88.00
21169;DHT22;10742;51.816;8.662;2022-11-20T14:41:35;8.00;87.90
21169;DHT22;10742;51.816;8.662;2022-11-20T14:44:59;7.90;88.00
21169;DHT22;10742;51.816;8.662;2022-11-20T14:48:24;7.90;87.90
21169;DHT22;10742;51.816;8.662;2022-11-20T14:51:57;7.90;87.90
21169;DHT22;10742;51.816;8.662;2022-11-20T14:55:53;7.80;88.00
21169;DHT22;10742;51.816;8.662;2022-11-20T14:59:26;7.80;87.50
21169;DHT22;10742;51.816;8.662;2022-11-20T15:02:49;7.80;87.80
21169;DHT22;10742;51.816;8.662;2022-11-20T15:06:12;7.80;87.80
21169;DHT22;10742;51.816;8.662;2022-11-20T15:09:33;7.70;87.70
21169;DHT22;10742;51.816;8.662;2022-11-20T15:13:18;7.70;87.80
21169;DHT22;10742;51.816;8.662;2022-11-20T15:16:37;7.70;87.70
21169;DHT22;10742;51.816;8.662;2022-11-20T15:19:59;7.60;87.70
21169;DHT22;10742;51.816;8.662;2022-11-20T15:23:23;7.60;87.50
21169;DHT22;10742;51.816;8.662;2022-11-20T15:26:44;7.60;87.50
21169;DHT22;10742;51.816;8.662;2022-11-20T15:30:15;7.50;87.50
21169;DHT22;10742;51.816;8.662;2022-11-20T15:33:36;7.50;87.30
21169;DHT22;10742;51.816;8.662;2022-11-20T15:36:58;7.50;87.60
21169;DHT22;10742;51.816;8.662;2022-11-20T15:40:19;7.50;87.70
21169;DHT22;10742;51.816;8.662;2022-11-20T15:43:40;7.40;87.70
21169;DHT22;10742;51.816;8.662;2022-11-20T15:47:01;7.40;87.70
21169;DHT22;10742;51.816;8.662;2022-11-20T15:50:27;7.40;87.70
21169;DHT22;10742;51.816;8.662;2022-11-20T15:53:50;7.40;87.40
21169;DHT22;10742;51.816;8.662;2022-11-20T15:57:10;7.30;87.40
21169;DHT22;10742;51.816;8.662;2022-11-20T16:00:33;7.30;87.50
21169;DHT22;10742;51.816;8.662;2022-11-20T16:03:55;7.30;87.50
21169;DHT22;10742;51.816;8.662;2022-11-20T16:07:16;7.20;87.40
21169;DHT22;10742;51.816;8.662;2022-11-20T16:10:38;7.20;87.40
21169;DHT22;10742;51.816;8.662;2022-11-20T16:13:59;7.20;87.50
21169;DHT22;10742;51.816;8.662;2022-11-20T16:17:39;7.10;87.50
21169;DHT22;10742;51.816;8.662;2022-11-20T16:21:03;7.10;87.60
21169;DHT22;10742;51.816;8.662;2022-11-20T16:24:24;7.10;87.50
21169;DHT22;10742;51.816;8.662;2022-11-20T16:27:45;7.00;87.50
21169;DHT22;10742;51.816;8.662;2022-11-20T16:31:15;7.00;87.40
21169;DHT22;10742;51.816;8.662;2022-11-20T16:34:37;7.00;87.10
21169;DHT22;10742;51.816;8.662;2022-11-20T16:37:58;6.90;87.50
21169;DHT22;10742;51.816;8.662;2022-11-20T16:41:20;6.90;87.70
21169;DHT22;10742;51.816;8.662;2022-11-20T16:44:41;6.90;87.80
21169;DHT22;10742;51.816;8.662;2022-11-20T16:48:02;6.80;87.90
21169;DHT22;10742;51.816;8.662;2022-11-20T16:51:25;6.80;87.90
21169;DHT22;10742;51.816;8.662;2022-11-20T16:54:46;6.80;87.90
21169;DHT22;10742;51.816;8.662;2022-11-20T16:58:08;6.80;88.00
21169;DHT22;10742;51.816;8.662;2022-11-20T17:01:30;6.80;88.10
21169;DHT22;10742;51.816;8.662;2022-11-20T17:04:52;6.80;88.10
21169;DHT22;10742;51.816;8.662;2022-11-20T17:08:13;6.80;89.00
21169;DHT22;10742;51.816;8.662;2022-11-20T17:11:34;6.80;88.30
21169;DHT22;10742;51.816;8.662;2022-11-20T17:14:56;6.80;88.20
21169;DHT22;10742;51.816;8.662;2022-11-20T17:18:17;6.80;88.30
21169;DHT22;10742;51.816;8.662;2022-11-20T17:21:38;6.80;88.30
21169;DHT22;10742;51.816;8.662;2022-11-20T17:24:59;6.80;88.30
21169;DHT22;10742;51.816;8.662;2022-11-20T17:28:22;6.70;88.30
21169;DHT22;10742;51.816;8.662;2022-11-20T17:31:44;6.70;88.40
21169;DHT22;10742;51.816;8.662;2022-11-20T17:35:05;6.70;88.50
21169;DHT22;10742;51.816;8.662;2022-11-20T17:38:27;6.70;88.60
21169;DHT22;10742;51.816;8.662;2022-11-20T17:41:49;6.70;88.60
21169;DHT22;10742;51.816;8.662;2022-11-20T17:45:30;6.80;88.80
21169;DHT22;10742;51.816;8.662;2022-11-20T17:48:51;6.80;88.90
21169;DHT22;10742;51.816;8.662;2022-11-20T17:52:12;6.80;89.00
21169;DHT22;10742;51.816;8.662;2022-11-20T17:55:34;6.80;89.00
21169;DHT22;10742;51.816;8.662;2022-11-20T17:59:16;6.80;89.20
21169;DHT22;10742;51.816;8.662;2022-11-20T18:02:38;6.80;89.30
21169;DHT22;10742;51.816;8.662;2022-11-20T18:06:16;6.80;89.50
21169;DHT22;10742;51.816;8.662;2022-11-20T18:09:38;6.80;90.00
21169;DHT22;10742;51.816;8.662;2022-11-20T18:13:00;6.70;90.00
21169;DHT22;10742;51.816;8.662;2022-11-20T18:16:21;6.70;90.10
21169;DHT22;10742;51.816;8.662;2022-11-20T18:19:44;6.70;90.20
21169;DHT22;10742;51.816;8.662;2022-11-20T18:23:15;6.70;90.30
21169;DHT22;10742;51.816;8.662;2022-11-20T18:26:36;6.70;90.40
21169;DHT22;10742;51.816;8.662;2022-11-20T18:30:01;6.60;90.50
21169;DHT22;10742;51.816;8.662;2022-11-20T18:33:23;6.60;90.60
21169;DHT22;10742;51.816;8.662;2022-11-20T18:36:48;6.60;90.80
21169;DHT22;10742;51.816;8.662;2022-11-20T18:40:10;6.60;90.70
21169;DHT22;10742;51.816;8.662;2022-11-20T18:43:32;6.60;90.80
21169;DHT22;10742;51.816;8.662;2022-11-20T18:47:23;6.50;90.90
21169;DHT22;10742;51.816;8.662;2022-11-20T18:50:44;6.50;91.00
21169;DHT22;10742;51.816;8.662;2022-11-20T18:54:06;6.50;90.90
21169;DHT22;10742;51.816;8.662;2022-11-20T18:57:28;6.40;91.10
21169;DHT22;10742;51.816;8.662;2022-11-20T19:00:50;6.40;91.10
21169;DHT22;10742;51.816;8.662;2022-11-20T19:04:13;6.40;91.20
21169;DHT22;10742;51.816;8.662;2022-11-20T19:07:34;6.30;91.40
21169;DHT22;10742;51.816;8.662;2022-11-20T19:11:05;6.30;91.50
21169;DHT22;10742;51.816;8.662;2022-11-20T19:14:26;6.30;91.80
21169;DHT22;10742;51.816;8.662;2022-11-20T19:17:47;6.30;91.70
21169;DHT22;10742;51.816;8.662;2022-11-20T19:21:10;6.30;91.80
21169;DHT22;10742;51.816;8.662;2022-11-20T19:24:32;6.30;91.80
21169;DHT22;10742;51.816;8.662;2022-11-20T19:27:54;6.30;91.90
21169;DHT22;10742;51.816;8.662;2022-11-20T19:31:18;6.30;92.00
21169;DHT22;10742;51.816;8.662;2022-11-20T19:34:45;6.20;92.00
21169;DHT22;10742;51.816;8.662;2022-11-20T19:38:06;6.30;92.10
21169;DHT22;10742;51.816;8.662;2022-11-20T19:41:32;6.30;92.10
21169;DHT22;10742;51.816;8.662;2022-11-20T19:44:53;6.30;92.30
21169;DHT22;10742;51.816;8.662;2022-11-20T19:48:14;6.30;92.20
21169;DHT22;10742;51.816;8.662;2022-11-20T19:51:37;6.30;92.20
21169;DHT22;10742;51.816;8.662;2022-11-20T19:54:58;6.30;92.20
21169;DHT22;10742;51.816;8.662;2022-11-20T19:58:19;6.20;92.20
21169;DHT22;10742;51.816;8.662;2022-11-20T20:01:40;6.20;92.20
21169;DHT22;10742;51.816;8.662;2022-11-20T20:05:02;6.20;92.30
21169;DHT22;10742;51.816;8.662;2022-11-20T20:08:23;6.20;92.30
21169;DHT22;10742;51.816;8.662;2022-11-20T20:11:45;6.20;92.40
21169;DHT22;10742;51.816;8.662;2022-11-20T20:15:07;6.20;92.50
21169;DHT22;10742;51.816;8.662;2022-11-20T20:18:29;6.20;92.50
21169;DHT22;10742;51.816;8.662;2022-11-20T20:21:51;6.20;92.50
21169;DHT22;10742;51.816;8.662;2022-11-20T20:25:12;6.20;92.60
21169;DHT22;10742;51.816;8.662;2022-11-20T20:28:35;6.20;92.60
21169;DHT22;10742;51.816;8.662;2022-11-20T20:31:56;6.20;92.60
21169;DHT22;10742;51.816;8.662;2022-11-20T20:35:17;6.30;92.70
21169;DHT22;10742;51.816;8.662;2022-11-20T20:38:39;6.30;92.70
21169;DHT22;10742;51.816;8.662;2022-11-20T20:42:01;6.30;92.70
21169;DHT22;10742;51.816;8.662;2022-11-20T20:45:22;6.30;92.80
21169;DHT22;10742;51.816;8.662;2022-11-20T20:48:43;6.30;92.80
21169;DHT22;10742;51.816;8.662;2022-11-20T20:52:04;6.30;92.70
21169;DHT22;10742;51.816;8.662;2022-11-20T20:55:28;6.30;92.70
21169;DHT22;10742;51.816;8.662;2022-11-20T20:58:49;6.30;92.70
21169;DHT22;10742;51.816;8.662;2022-11-20T21:02:10;6.30;92.70
21169;DHT22;10742;51.816;8.662;2022-11-20T21:05:32;6.30;92.80
21169;DHT22;10742;51.816;8.662;2022-11-20T21:08:53;6.30;92.70
21169;DHT22;10742;51.816;8.662;2022-11-20T21:12:16;6.20;92.80
21169;DHT22;10742;51.816;8.662;2022-11-20T21:15:38;6.20;92.80
21169;DHT22;10742;51.816;8.662;2022-11-20T21:18:59;6.20;92.80
21169;DHT22;10742;51.816;8.662;2022-11-20T21:22:20;6.20;92.90
21169;DHT22;10742;51.816;8.662;2022-11-20T21:25:41;6.20;92.90
21169;DHT22;10742;51.816;8.662;2022-11-20T21:29:03;6.20;93.00
21169;DHT22;10742;51.816;8.662;2022-11-20T21:32:24;6.20;93.10
21169;DHT22;10742;51.816;8.662;2022-11-20T21:35:45;6.20;93.20
21169;DHT22;10742;51.816;8.662;2022-11-20T21:39:07;6.20;93.20
21169;DHT22;10742;51.816;8.662;2022-11-20T21:42:29;6.20;93.30
21169;DHT22;10742;51.816;8.662;2022-11-20T21:45:50;6.20;93.30
21169;DHT22;10742;51.816;8.662;2022-11-20T21:49:12;6.30;93.30
21169;DHT22;10742;51.816;8.662;2022-11-20T21:52:34;6.30;93.40
21169;DHT22;10742;51.816;8.662;2022-11-20T21:55:56;6.30;93.30
21169;DHT22;10742;51.816;8.662;2022-11-20T21:59:18;6.30;93.40
21169;DHT22;10742;51.816;8.662;2022-11-20T22:02:39;6.30;93.30
21169;DHT22;10742;51.816;8.662;2022-11-20T22:05:59;6.30;93.30
21169;DHT22;10742;51.816;8.662;2022-11-20T22:09:21;6.30;93.30
21169;DHT22;10742;51.816;8.662;2022-11-20T22:12:42;6.30;93.40
21169;DHT22;10742;51.816;8.662;2022-11-20T22:16:04;6.30;93.40
21169;DHT22;10742;51.816;8.662;2022-11-20T22:19:25;6.30;93.30
21169;DHT22;10742;51.816;8.662;2022-11-20T22:22:46;6.30;93.30
21169;DHT22;10742;51.816;8.662;2022-11-20T22:26:10;6.30;93.30
21169;DHT22;10742;51.816;8.662;2022-11-20T22:29:31;6.30;93.40
21169;DHT22;10742;51.816;8.662;2022-11-20T22:32:52;6.30;93.30
21169;DHT22;10742;51.816;8.662;2022-11-20T22:36:17;6.30;93.40
21169;DHT22;10742;51.816;8.662;2022-11-20T22:39:38;6.30;93.40
21169;DHT22;10742;51.816;8.662;2022-11-20T22:43:00;6.30;93.40
21169;DHT22;10742;51.816;8.662;2022-11-20T22:46:21;6.30;93.50
21169;DHT22;10742;51.816;8.662;2022-11-20T22:49:42;6.30;93.50